Time;durP1;ratioP1;P1;durP2;ratioP2;P2;SDS_P1;SDS_P2;PMS_P1;PMS_P2;Temp;Humidity;BMP_temperature;BMP_pressure;BME280_temperature;BME280_humidity;BME280_pressure;Samples;Min_cycle;Max_cycle;Signal;HPM_P1;HPM_P2
2022/11/13 00:01:39;;;;;;;;;;;;;;;;;;5012093;28;20378;-65
2022/11/13 00:04:05;;;;;;;;;;;;;;;;;;5025705;28;19920;-64
2022/11/13 00:06:31;;;;;;;;;;;;;;;;;;5031240;28;19935;-65
2022/11/13 00:08:57;;;;;;;;;;;;;;;;;;5030640;28;20009;-66
2022/11/13 00:11:23;;;;;;;;;;;;;;;;;;5031430;28;19913;-64
2022/11/13 00:13:49;;;;;;;;;;;;;;;;;;5031034;28;20035;-66
2022/11/13 00:16:15;;;;;;;;;;;;;;;;;;5031173;28;20329;-63
2022/11/13 00:18:40;;;;;;;;;;;;;;;;;;5030706;28;19909;-66
2022/11/13 00:21:06;;;;;;;;;;;;;;;;;;5030933;28;19917;-65
2022/11/13 00:23:33;;;;;;;;;;;;;;;;;;5029968;28;19917;-66
2022/11/13 00:25:59;;;;;;;;;;;;;;;;;;5030641;28;19909;-65
2022/11/13 00:28:25;;;;;;;;;;;;;;;;;;5017457;28;19960;-65
2022/11/13 00:30:51;;;;;;;;;;;;;;;;;;5011795;28;20378;-65
2022/11/13 00:33:17;;;;;;;;;;;;;;;;;;5011891;28;20020;-65
2022/11/13 00:35:43;;;;;;;;;;;;;;;;;;5011538;28;20688;-64
2022/11/13 00:38:08;;;;;;;;;;;;;;;;;;5011378;28;19940;-64
2022/11/13 00:40:34;;;;;;;;;;;;;;;;;;5011633;28;20392;-64
2022/11/13 00:43:00;;;;;;;;;;;;;;;;;;5011512;28;19917;-65
2022/11/13 00:45:26;;;;;;;;;;;;;;;;;;5011402;28;20370;-64
2022/11/13 00:47:52;;;;;;;;;;;;;;;;;;5011651;28;19920;-64
2022/11/13 00:50:18;;;;;;;;;;;;;;;;;;5010982;28;19913;-64
2022/11/13 00:52:44;;;;;;;;;;;;;;;;;;5011211;28;19996;-64
2022/11/13 00:55:10;;;;;;;;;;;;;;;;;;5010987;28;19959;-64
2022/11/13 00:57:35;;;;;;;;;;;;;;;;;;5010963;28;19916;-64
2022/11/13 01:00:01;;;;;;;;;;;;;;;;;;5011716;28;19936;-64
2022/11/13 01:02:27;;;;;;;;;;;;;;;;;;5011234;28;20302;-65
2022/11/13 01:04:53;;;;;;;;;;;;;;;;;;5011203;28;19913;-65
2022/11/13 01:07:19;;;;;;;;;;;;;;;;;;5011111;28;20480;-64
2022/11/13 01:09:45;;;;;;;;;;;;;;;;;;5011120;28;19921;-66
2022/11/13 01:12:11;;;;;;;;;;;;;;;;;;5010876;28;19918;-63
2022/11/13 01:14:37;;;;;;;;;;;;;;;;;;5010859;28;20362;-64
2022/11/13 01:17:02;;;;;;;;;;;;;;;;;;5011123;28;19955;-63
2022/11/13 01:19:28;;;;;;;;;;;;;;;;;;5029315;28;19921;-64
2022/11/13 01:21:54;;;;;;;;;;;;;;;;;;5029257;28;19913;-64
2022/11/13 01:24:20;;;;;;;;;;;;;;;;;;5029526;28;19974;-63
2022/11/13 01:26:46;;;;;;;;;;;;;;;;;;5029774;28;19913;-64
2022/11/13 01:29:12;;;;;;;;;;;;;;;;;;5029480;28;20144;-64
2022/11/13 01:31:38;;;;;;;;;;;;;;;;;;5029995;28;20305;-64
2022/11/13 01:34:04;;;;;;;;;;;;;;;;;;5028424;28;19925;-65
2022/11/13 01:36:29;;;;;;;;;;;;;;;;;;5025058;28;20409;-62
2022/11/13 01:38:55;;;;;;;;;;;;;;;;;;5023292;28;19921;-64
2022/11/13 01:41:21;;;;;;;;;;;;;;;;;;5015946;28;19956;-64
2022/11/13 01:43:47;;;;;;;;;;;;;;;;;;5010337;28;19920;-63
2022/11/13 01:46:13;;;;;;;;;;;;;;;;;;4992766;28;19913;-64
2022/11/13 01:48:39;;;;;;;;;;;;;;;;;;5009875;28;19929;-65
2022/11/13 01:51:05;;;;;;;;;;;;;;;;;;5010113;28;20007;-64
2022/11/13 01:53:31;;;;;;;;;;;;;;;;;;5009895;28;19921;-65
2022/11/13 01:55:56;;;;;;;;;;;;;;;;;;5010210;28;19917;-63
2022/11/13 01:58:22;;;;;;;;;;;;;;;;;;5025194;28;20024;-64
2022/11/13 02:00:48;;;;;;;;;;;;;;;;;;5021084;28;19914;-64
2022/11/13 02:03:14;;;;;;;;;;;;;;;;;;5010093;28;20881;-64
2022/11/13 02:05:40;;;;;;;;;;;;;;;;;;5010192;28;19920;-65
2022/11/13 02:08:06;;;;;;;;;;;;;;;;;;5010146;28;20373;-64
2022/11/13 02:10:32;;;;;;;;;;;;;;;;;;5010303;28;19913;-64
2022/11/13 02:12:58;;;;;;;;;;;;;;;;;;5015271;28;19928;-65
2022/11/13 02:15:23;;;;;;;;;;;;;;;;;;5009896;28;20381;-64
2022/11/13 02:17:49;;;;;;;;;;;;;;;;;;5015834;28;19913;-63
2022/11/13 02:20:15;;;;;;;;;;;;;;;;;;5003102;28;19968;-65
2022/11/13 02:22:41;;;;;;;;;;;;;;;;;;5009986;28;19916;-63
2022/11/13 02:25:07;;;;;;;;;;;;;;;;;;5010083;28;19909;-63
2022/11/13 02:27:33;;;;;;;;;;;;;;;;;;5015752;28;19956;-64
2022/11/13 02:29:59;;;;;;;;;;;;;;;;;;5028770;28;19922;-64
2022/11/13 02:32:25;;;;;;;;;;;;;;;;;;5027783;28;19928;-64
2022/11/13 02:34:50;;;;;;;;;;;;;;;;;;5028495;28;20004;-64
2022/11/13 02:37:16;;;;;;;;;;;;;;;;;;5010178;28;19913;-64
2022/11/13 02:39:43;;;;;;;;;;;;;;;;;;5013685;28;19913;-64
2022/11/13 02:42:08;;;;;;;;;;;;;;;;;;5028814;28;20457;-63
2022/11/13 02:44:34;;;;;;;;;;;;;;;;;;5028677;28;19967;-64
2022/11/13 02:47:00;;;;;;;;;;;;;;;;;;5021669;28;19939;-64
2022/11/13 02:49:26;;;;;;;;;;;;;;;;;;5016883;28;19932;-63
2022/11/13 02:51:52;;;;;;;;;;;;;;;;;;5032742;28;19913;-64
2022/11/13 02:54:18;;;;;;;;;;;;;;;;;;5032670;28;19988;-64
2022/11/13 02:56:44;;;;;;;;;;;;;;;;;;5027003;28;19909;-63
2022/11/13 02:59:10;;;;;;;;;;;;;;;;;;5013216;28;19956;-63
2022/11/13 03:01:36;;;;;;;;;;;;;;;;;;5013268;28;19914;-62
2022/11/13 03:04:02;;;;;;;;;;;;;;;;;;4995794;28;19976;-63
2022/11/13 03:06:27;;;;;;;;;;;;;;;;;;5013120;28;19910;-63
2022/11/13 03:08:53;;;;;;;;;;;;;;;;;;5012894;28;19913;-64
2022/11/13 03:11:19;;;;;;;;;;;;;;;;;;5013930;28;19917;-64
2022/11/13 03:13:45;;;;;;;;;;;;;;;;;;5012969;28;19966;-64
2022/11/13 03:16:11;;;;;;;;;;;;;;;;;;5012543;28;20293;-65
2022/11/13 03:18:37;;;;;;;;;;;;;;;;;;5013011;28;19914;-63
2022/11/13 03:21:03;;;;;;;;;;;;;;;;;;5012756;28;20012;-64
2022/11/13 03:23:29;;;;;;;;;;;;;;;;;;5031881;28;19917;-63
2022/11/13 03:25:55;;;;;;;;;;;;;;;;;;5031926;28;19909;-64
2022/11/13 03:28:21;;;;;;;;;;;;;;;;;;5026212;28;19913;-64
2022/11/13 03:30:46;;;;;;;;;;;;;;;;;;5012525;28;19918;-63
2022/11/13 03:33:12;;;;;;;;;;;;;;;;;;5024090;28;19968;-64
2022/11/13 03:35:38;;;;;;;;;;;;;;;;;;5026733;28;19920;-63
2022/11/13 03:38:04;;;;;;;;;;;;;;;;;;5030082;28;19909;-64
2022/11/13 03:40:30;;;;;;;;;;;;;;;;;;5022197;28;20007;-64
2022/11/13 03:42:56;;;;;;;;;;;;;;;;;;4994548;28;19936;-64
2022/11/13 03:45:22;;;;;;;;;;;;;;;;;;5012341;28;20400;-63
2022/11/13 03:47:48;;;;;;;;;;;;;;;;;;5012546;28;19910;-64
2022/11/13 03:50:14;;;;;;;;;;;;;;;;;;5012469;28;19913;-64
2022/11/13 03:52:39;;;;;;;;;;;;;;;;;;5012282;28;20282;-65
2022/11/13 03:55:05;;;;;;;;;;;;;;;;;;5021684;28;19913;-64
2022/11/13 03:57:31;;;;;;;;;;;;;;;;;;5030009;28;20378;-64
2022/11/13 03:59:57;;;;;;;;;;;;;;;;;;5031040;28;19956;-64
2022/11/13 04:02:23;;;;;;;;;;;;;;;;;;5012556;28;19967;-63
2022/11/13 04:04:49;;;;;;;;;;;;;;;;;;5012104;28;19909;-64
2022/11/13 04:07:15;;;;;;;;;;;;;;;;;;5012332;28;20374;-64
2022/11/13 04:09:41;;;;;;;;;;;;;;;;;;5011444;28;19914;-64
2022/11/13 04:12:06;;;;;;;;;;;;;;;;;;5011946;28;19917;-64
2022/11/13 04:14:32;;;;;;;;;;;;;;;;;;5012422;28;19910;-64
2022/11/13 04:16:58;;;;;;;;;;;;;;;;;;5030851;28;19909;-65
2022/11/13 04:19:24;;;;;;;;;;;;;;;;;;5027959;28;19936;-62
2022/11/13 04:21:50;;;;;;;;;;;;;;;;;;5011717;28;19917;-64
2022/11/13 04:24:16;;;;;;;;;;;;;;;;;;5005674;28;19914;-65
2022/11/13 04:26:42;;;;;;;;;;;;;;;;;;5011698;28;19953;-65
2022/11/13 04:29:08;;;;;;;;;;;;;;;;;;5022913;28;19975;-65
2022/11/13 04:31:33;;;;;;;;;;;;;;;;;;5026163;28;19909;-63
2022/11/13 04:33:59;;;;;;;;;;;;;;;;;;5011804;28;19922;-64
2022/11/13 04:36:25;;;;;;;;;;;;;;;;;;5011664;28;20286;-63
2022/11/13 04:38:51;;;;;;;;;;;;;;;;;;5011844;28;20480;-64
2022/11/13 04:44:01;;;;;;;;;;;;;;;;;;5021990;28;19932;-64
2022/11/13 04:46:27;;;;;;;;;;;;;;;;;;5030470;28;19913;-63
2022/11/13 04:48:53;;;;;;;;;;;;;;;;;;5017888;28;20013;-62
2022/11/13 04:51:19;;;;;;;;;;;;;;;;;;5030230;28;20370;-63
2022/11/13 04:53:45;;;;;;;;;;;;;;;;;;5030137;28;19957;-63
2022/11/13 04:56:11;;;;;;;;;;;;;;;;;;5021134;28;19960;-64
2022/11/13 04:58:37;;;;;;;;;;;;;;;;;;5011112;28;20410;-63
2022/11/13 05:01:03;;;;;;;;;;;;;;;;;;4993190;28;19921;-64
2022/11/13 05:03:29;;;;;;;;;;;;;;;;;;5011140;28;19925;-64
2022/11/13 05:05:54;;;;;;;;;;;;;;;;;;5011353;28;19948;-64
2022/11/13 05:08:20;;;;;;;;;;;;;;;;;;5021102;28;20412;-63
2022/11/13 05:10:46;;;;;;;;;;;;;;;;;;5030121;28;19939;-64
2022/11/13 05:13:12;;;;;;;;;;;;;;;;;;5022811;28;19921;-64
2022/11/13 05:15:38;;;;;;;;;;;;;;;;;;5029882;28;19909;-64
2022/11/13 05:18:04;;;;;;;;;;;;;;;;;;5021217;28;19945;-64
2022/11/13 05:20:30;;;;;;;;;;;;;;;;;;5010828;28;20369;-63
2022/11/13 05:22:56;;;;;;;;;;;;;;;;;;5010641;28;19909;-63
2022/11/13 05:25:22;;;;;;;;;;;;;;;;;;5010910;28;20421;-64
2022/11/13 05:27:47;;;;;;;;;;;;;;;;;;5010293;28;19920;-64
2022/11/13 05:30:13;;;;;;;;;;;;;;;;;;5011146;28;19921;-64
2022/11/13 05:32:39;;;;;;;;;;;;;;;;;;5010631;28;19921;-64
2022/11/13 05:35:05;;;;;;;;;;;;;;;;;;5010268;28;19940;-64
2022/11/13 05:37:31;;;;;;;;;;;;;;;;;;5010423;28;19913;-64
2022/11/13 05:39:57;;;;;;;;;;;;;;;;;;5017875;28;19909;-63
2022/11/13 05:42:23;;;;;;;;;;;;;;;;;;5022192;28;19914;-65
2022/11/13 05:44:49;;;;;;;;;;;;;;;;;;5010715;28;19961;-64
2022/11/13 05:47:15;;;;;;;;;;;;;;;;;;5010612;28;19914;-63
2022/11/13 05:49:40;;;;;;;;;;;;;;;;;;5010049;28;19996;-64
2022/11/13 05:52:06;;;;;;;;;;;;;;;;;;5028701;28;19920;-62
2022/11/13 05:54:32;;;;;;;;;;;;;;;;;;5029016;28;20386;-64
2022/11/13 05:56:58;;;;;;;;;;;;;;;;;;5021826;28;19909;-63
2022/11/13 05:59:24;;;;;;;;;;;;;;;;;;5010103;28;19967;-65
2022/11/13 06:01:50;;;;;;;;;;;;;;;;;;5009885;28;19913;-63
2022/11/13 06:04:16;;;;;;;;;;;;;;;;;;4992643;28;19910;-63
2022/11/13 06:06:42;;;;;;;;;;;;;;;;;;5010122;28;20099;-64
2022/11/13 06:09:08;;;;;;;;;;;;;;;;;;5009981;28;19913;-63
2022/11/13 06:11:34;;;;;;;;;;;;;;;;;;5015561;28;19909;-64
2022/11/13 06:14:00;;;;;;;;;;;;;;;;;;5011857;28;20401;-65
2022/11/13 06:16:25;;;;;;;;;;;;;;;;;;5026774;28;19921;-64
2022/11/13 06:18:51;;;;;;;;;;;;;;;;;;5028923;28;19917;-64
2022/11/13 06:21:17;;;;;;;;;;;;;;;;;;5032651;28;20313;-63
2022/11/13 06:23:43;;;;;;;;;;;;;;;;;;5035269;28;19952;-64
2022/11/13 06:26:09;;;;;;;;;;;;;;;;;;5035036;28;19913;-65
2022/11/13 06:28:35;;;;;;;;;;;;;;;;;;5035666;28;19916;-64
2022/11/13 06:31:01;;;;;;;;;;;;;;;;;;5035224;28;20312;-64
2022/11/13 06:33:27;;;;;;;;;;;;;;;;;;5035262;28;19921;-63
2022/11/13 06:35:52;;;;;;;;;;;;;;;;;;5035547;28;20012;-64
2022/11/13 06:38:18;;;;;;;;;;;;;;;;;;5035567;28;19983;-63
2022/11/13 06:40:44;;;;;;;;;;;;;;;;;;5030833;28;20377;-64
2022/11/13 06:43:11;;;;;;;;;;;;;;;;;;5033701;28;19999;-63
2022/11/13 06:45:37;;;;;;;;;;;;;;;;;;5016070;28;19910;-64
2022/11/13 06:48:02;;;;;;;;;;;;;;;;;;5016100;28;19916;-64
2022/11/13 06:50:28;;;;;;;;;;;;;;;;;;5016354;28;19920;-64
2022/11/13 06:52:54;;;;;;;;;;;;;;;;;;5016277;28;19922;-64
2022/11/13 06:55:20;;;;;;;;;;;;;;;;;;5034791;28;19916;-65
2022/11/13 06:57:46;;;;;;;;;;;;;;;;;;5035294;28;19932;-64
2022/11/13 07:00:12;;;;;;;;;;;;;;;;;;5034896;28;19952;-63
2022/11/13 07:02:38;;;;;;;;;;;;;;;;;;5022021;28;19914;-64
2022/11/13 07:05:03;;;;;;;;;;;;;;;;;;5016046;28;19914;-64
2022/11/13 07:07:29;;;;;;;;;;;;;;;;;;5020676;28;19949;-64
2022/11/13 07:09:55;;;;;;;;;;;;;;;;;;5034857;28;20336;-63
2022/11/13 07:12:21;;;;;;;;;;;;;;;;;;5035457;28;19913;-64
2022/11/13 07:14:47;;;;;;;;;;;;;;;;;;5034896;28;20019;-63
2022/11/13 07:17:13;;;;;;;;;;;;;;;;;;5034926;28;20401;-63
2022/11/13 07:19:39;;;;;;;;;;;;;;;;;;5035049;28;19929;-64
2022/11/13 07:22:05;;;;;;;;;;;;;;;;;;5034597;28;19960;-64
2022/11/13 07:24:31;;;;;;;;;;;;;;;;;;5035300;28;19920;-62
2022/11/13 07:26:56;;;;;;;;;;;;;;;;;;5019448;28;20399;-63
2022/11/13 07:29:22;;;;;;;;;;;;;;;;;;4998187;28;20461;-64
2022/11/13 07:31:48;;;;;;;;;;;;;;;;;;5015301;28;20324;-62
2022/11/13 07:34:14;;;;;;;;;;;;;;;;;;5012719;28;19921;-64
2022/11/13 07:36:40;;;;;;;;;;;;;;;;;;5012265;28;19909;-63
2022/11/13 07:39:06;;;;;;;;;;;;;;;;;;5014040;28;19910;-63
2022/11/13 07:41:32;;;;;;;;;;;;;;;;;;5031954;28;20334;-64
2022/11/13 07:43:58;;;;;;;;;;;;;;;;;;5030500;28;19905;-65
2022/11/13 07:46:23;;;;;;;;;;;;;;;;;;5012576;28;20007;-65
2022/11/13 07:48:49;;;;;;;;;;;;;;;;;;5012568;28;19914;-64
2022/11/13 07:51:15;;;;;;;;;;;;;;;;;;5012217;28;19920;-64
2022/11/13 07:53:41;;;;;;;;;;;;;;;;;;5011950;28;20010;-65
2022/11/13 07:56:07;;;;;;;;;;;;;;;;;;5031440;28;19913;-63
2022/11/13 07:58:33;;;;;;;;;;;;;;;;;;5012525;28;20425;-65
2022/11/13 08:00:59;;;;;;;;;;;;;;;;;;5018418;28;19916;-65
2022/11/13 08:03:25;;;;;;;;;;;;;;;;;;5012376;28;20397;-65
2022/11/13 08:05:51;;;;;;;;;;;;;;;;;;5011865;28;19949;-64
2022/11/13 08:08:17;;;;;;;;;;;;;;;;;;5011890;28;19913;-63
2022/11/13 08:10:43;;;;;;;;;;;;;;;;;;5017373;28;20134;-65
2022/11/13 08:13:09;;;;;;;;;;;;;;;;;;5031078;28;20381;-64
2022/11/13 08:15:35;;;;;;;;;;;;;;;;;;5030815;28;20003;-63
2022/11/13 08:18:01;;;;;;;;;;;;;;;;;;5030730;28;19909;-63
2022/11/13 08:20:27;;;;;;;;;;;;;;;;;;5030155;28;20392;-63
2022/11/13 08:22:53;;;;;;;;;;;;;;;;;;5031101;28;19909;-64
2022/11/13 08:25:19;;;;;;;;;;;;;;;;;;5030693;28;19924;-63
2022/11/13 08:27:45;;;;;;;;;;;;;;;;;;5030439;28;20305;-64
2022/11/13 08:30:10;;;;;;;;;;;;;;;;;;5021440;28;20301;-64
2022/11/13 08:32:36;;;;;;;;;;;;;;;;;;5011121;28;19918;-64
2022/11/13 08:35:02;;;;;;;;;;;;;;;;;;5011324;28;19963;-64
2022/11/13 08:37:28;;;;;;;;;;;;;;;;;;5026055;28;20297;-64
2022/11/13 08:39:54;;;;;;;;;;;;;;;;;;5020560;28;20017;-64
2022/11/13 08:42:20;;;;;;;;;;;;;;;;;;5011425;28;20436;-64
2022/11/13 08:44:46;;;;;;;;;;;;;;;;;;5010897;28;19906;-62
2022/11/13 08:47:12;;;;;;;;;;;;;;;;;;5011375;28;19916;-65
2022/11/13 08:49:37;;;;;;;;;;;;;;;;;;5010635;28;19990;-64
2022/11/13 08:52:03;;;;;;;;;;;;;;;;;;5011487;28;19921;-64
2022/11/13 08:54:29;;;;;;;;;;;;;;;;;;5011190;28;19929;-64
2022/11/13 08:56:55;;;;;;;;;;;;;;;;;;5010823;28;19913;-63
2022/11/13 08:59:22;;;;;;;;;;;;;;;;;;5004546;28;19920;-64
2022/11/13 09:01:48;;;;;;;;;;;;;;;;;;5017641;28;20343;-64
2022/11/13 09:04:14;;;;;;;;;;;;;;;;;;5022951;28;20062;-63
2022/11/13 09:06:40;;;;;;;;;;;;;;;;;;5029483;28;20016;-65
2022/11/13 09:09:06;;;;;;;;;;;;;;;;;;5029753;28;19909;-64
2022/11/13 09:11:32;;;;;;;;;;;;;;;;;;5029543;28;20313;-64
2022/11/13 09:13:58;;;;;;;;;;;;;;;;;;5018400;28;19964;-64
2022/11/13 09:16:23;;;;;;;;;;;;;;;;;;5014582;28;19931;-63
2022/11/13 09:18:49;;;;;;;;;;;;;;;;;;5029036;28;20675;-62
2022/11/13 09:21:15;;;;;;;;;;;;;;;;;;5028884;28;19913;-62
2022/11/13 09:23:41;;;;;;;;;;;;;;;;;;5021271;28;20012;-63
2022/11/13 09:26:07;;;;;;;;;;;;;;;;;;5015883;28;19924;-73
2022/11/13 09:28:33;;;;;;;;;;;;;;;;;;5010877;28;19953;-73
2022/11/13 09:30:59;;;;;;;;;;;;;;;;;;5006495;28;19913;-72
2022/11/13 09:33:25;;;;;;;;;;;;;;;;;;5008239;28;20047;-73
2022/11/13 09:35:51;;;;;;;;;;;;;;;;;;5010459;28;19913;-77
2022/11/13 09:38:17;;;;;;;;;;;;;;;;;;5010770;28;19909;-77
2022/11/13 09:40:43;;;;;;;;;;;;;;;;;;5025081;28;19919;-77
2022/11/13 09:43:09;;;;;;;;;;;;;;;;;;5021299;28;19913;-76
2022/11/13 09:45:35;;;;;;;;;;;;;;;;;;5010937;28;19914;-76
2022/11/13 09:48:00;;;;;;;;;;;;;;;;;;5010463;28;20426;-76
2022/11/13 09:50:26;;;;;;;;;;;;;;;;;;5010292;28;19924;-77
2022/11/13 09:52:52;;;;;;;;;;;;;;;;;;5029448;28;20336;-75
2022/11/13 09:55:18;;;;;;;;;;;;;;;;;;5028372;28;19913;-76
2022/11/13 09:57:44;;;;;;;;;;;;;;;;;;5028753;28;19913;-76
2022/11/13 10:00:10;;;;;;;;;;;;;;;;;;5028946;28;20457;-76
2022/11/13 10:02:36;;;;;;;;;;;;;;;;;;5026255;28;20003;-75
2022/11/13 10:05:02;;;;;;;;;;;;;;;;;;5024525;28;20730;-76
2022/11/13 10:07:28;;;;;;;;;;;;;;;;;;5002415;28;19918;-74
2022/11/13 10:09:54;;;;;;;;;;;;;;;;;;5002500;28;19925;-75
2022/11/13 10:12:20;;;;;;;;;;;;;;;;;;5001227;28;19957;-75
2022/11/13 10:14:46;;;;;;;;;;;;;;;;;;5002591;28;19913;-76
2022/11/13 10:17:12;;;;;;;;;;;;;;;;;;5003848;28;19917;-73
2022/11/13 10:19:38;;;;;;;;;;;;;;;;;;5004895;28;19926;-74
2022/11/13 10:22:04;;;;;;;;;;;;;;;;;;5002073;28;19952;-74
2022/11/13 10:24:30;;;;;;;;;;;;;;;;;;5004367;28;20407;-75
2022/11/13 10:26:56;;;;;;;;;;;;;;;;;;4999795;28;19917;-76
2022/11/13 10:29:22;;;;;;;;;;;;;;;;;;5004268;28;20305;-75
2022/11/13 10:31:48;;;;;;;;;;;;;;;;;;5001174;28;19925;-76
2022/11/13 10:34:14;;;;;;;;;;;;;;;;;;5003400;28;19922;-75
2022/11/13 10:36:40;;;;;;;;;;;;;;;;;;5001472;28;19959;-76
2022/11/13 10:39:06;;;;;;;;;;;;;;;;;;5004932;28;19917;-74
2022/11/13 10:41:31;;;;;;;;;;;;;;;;;;4999104;28;19914;-80
2022/11/13 10:43:57;;;;;;;;;;;;;;;;;;5000461;28;20012;-77
2022/11/13 10:46:24;;;;;;;;;;;;;;;;;;5005280;28;19913;-76
2022/11/13 10:48:50;;;;;;;;;;;;;;;;;;5002447;28;19918;-76
2022/11/13 10:51:16;;;;;;;;;;;;;;;;;;5005343;28;19917;-72
2022/11/13 10:53:41;;;;;;;;;;;;;;;;;;5003698;28;19921;-76
2022/11/13 10:56:07;;;;;;;;;;;;;;;;;;5003493;28;20430;-76
2022/11/13 10:58:33;;;;;;;;;;;;;;;;;;4999841;28;19910;-77
2022/11/13 11:00:59;;;;;;;;;;;;;;;;;;5002702;28;20441;-72
2022/11/13 11:03:26;;;;;;;;;;;;;;;;;;5001853;28;20000;-68
2022/11/13 11:05:51;;;;;;;;;;;;;;;;;;5003184;28;20378;-67
2022/11/13 11:08:17;;;;;;;;;;;;;;;;;;5002751;28;20123;-69
2022/11/13 11:12:14;;;;;;;;;;;;;;;;;;5012040;28;19917;-69
2022/11/13 11:13:29;;;;;;;;;;;;;;;;;;5004828;28;19929;-70
2022/11/13 11:15:55;;;;;;;;;;;;;;;;;;5008068;28;19940;-68
2022/11/13 11:18:21;;;;;;;;;;;;;;;;;;5008870;28;20000;-70
2022/11/13 11:20:47;;;;;;;;;;;;;;;;;;5006275;28;19999;-68
2022/11/13 11:23:12;;;;;;;;;;;;;;;;;;5007673;28;20012;-68
2022/11/13 11:25:39;;;;;;;;;;;;;;;;;;5008257;28;19960;-68
2022/11/13 11:28:05;;;;;;;;;;;;;;;;;;5005188;28;19917;-68
2022/11/13 11:30:31;;;;;;;;;;;;;;;;;;5004111;28;19917;-68
2022/11/13 11:32:56;;;;;;;;;;;;;;;;;;5005107;28;19921;-69
2022/11/13 11:35:22;;;;;;;;;;;;;;;;;;5007104;28;20402;-70
2022/11/13 11:37:48;;;;;;;;;;;;;;;;;;5006016;28;19956;-68
2022/11/13 11:40:15;;;;;;;;;;;;;;;;;;5007806;28;19955;-69
2022/11/13 11:42:41;;;;;;;;;;;;;;;;;;5010302;28;19945;-70
2022/11/13 11:45:07;;;;;;;;;;;;;;;;;;5002109;28;20382;-69
2022/11/13 11:47:33;;;;;;;;;;;;;;;;;;5005853;28;19948;-69
2022/11/13 11:49:59;;;;;;;;;;;;;;;;;;5002822;28;19957;-69
2022/11/13 11:52:24;;;;;;;;;;;;;;;;;;5007360;28;19956;-70
2022/11/13 11:54:50;;;;;;;;;;;;;;;;;;5001857;28;19917;-69
2022/11/13 11:57:16;;;;;;;;;;;;;;;;;;5007521;28;20011;-68
2022/11/13 11:59:42;;;;;;;;;;;;;;;;;;5002062;28;19914;-69
2022/11/13 12:02:08;;;;;;;;;;;;;;;;;;5001527;28;20334;-69
2022/11/13 12:04:34;;;;;;;;;;;;;;;;;;5009067;28;19963;-70
2022/11/13 12:07:00;;;;;;;;;;;;;;;;;;5003353;28;19961;-69
2022/11/13 12:09:26;;;;;;;;;;;;;;;;;;5004157;28;19924;-69
2022/11/13 12:11:52;;;;;;;;;;;;;;;;;;5008626;28;20058;-69
2022/11/13 12:14:19;;;;;;;;;;;;;;;;;;4991421;28;20766;-70
2022/11/13 12:16:45;;;;;;;;;;;;;;;;;;5002028;28;19960;-69
2022/11/13 12:19:10;;;;;;;;;;;;;;;;;;5004138;28;19961;-69
2022/11/13 12:21:36;;;;;;;;;;;;;;;;;;4985818;28;20303;-70
2022/11/13 12:24:02;;;;;;;;;;;;;;;;;;5005062;28;20375;-69
2022/11/13 12:26:29;;;;;;;;;;;;;;;;;;5000819;28;19917;-70
2022/11/13 12:28:54;;;;;;;;;;;;;;;;;;5009596;28;19917;-69
2022/11/13 12:31:20;;;;;;;;;;;;;;;;;;5000119;28;19920;-72
2022/11/13 12:33:46;;;;;;;;;;;;;;;;;;5009063;28;19994;-69
2022/11/13 12:36:12;;;;;;;;;;;;;;;;;;5007085;28;19972;-69
2022/11/13 12:38:38;;;;;;;;;;;;;;;;;;5004353;28;19991;-69
2022/11/13 12:41:04;;;;;;;;;;;;;;;;;;5002418;28;19917;-70
2022/11/13 12:43:30;;;;;;;;;;;;;;;;;;5005826;28;19920;-70
2022/11/13 12:45:56;;;;;;;;;;;;;;;;;;5002170;28;19940;-68
2022/11/13 12:48:22;;;;;;;;;;;;;;;;;;5001034;28;19969;-69
2022/11/13 12:50:48;;;;;;;;;;;;;;;;;;5005335;28;20008;-67
2022/11/13 12:53:14;;;;;;;;;;;;;;;;;;5002015;28;20044;-69
2022/11/13 12:55:39;;;;;;;;;;;;;;;;;;5003772;28;19914;-71
2022/11/13 12:58:05;;;;;;;;;;;;;;;;;;5006104;28;19917;-70
2022/11/13 13:00:31;;;;;;;;;;;;;;;;;;5004884;28;19955;-71
2022/11/13 13:02:57;;;;;;;;;;;;;;;;;;4999971;28;19917;-71
2022/11/13 13:05:23;;;;;;;;;;;;;;;;;;5005078;28;19918;-70
2022/11/13 13:07:49;;;;;;;;;;;;;;;;;;5002052;28;19917;-71
2022/11/13 13:10:15;;;;;;;;;;;;;;;;;;5004055;28;19922;-70
2022/11/13 13:12:41;;;;;;;;;;;;;;;;;;4999742;28;20370;-70
2022/11/13 13:15:07;;;;;;;;;;;;;;;;;;5007037;28;19923;-69
2022/11/13 13:17:33;;;;;;;;;;;;;;;;;;5002662;28;20001;-69
2022/11/13 13:19:59;;;;;;;;;;;;;;;;;;5008710;28;20055;-70
2022/11/13 13:22:25;;;;;;;;;;;;;;;;;;5002196;28;19953;-70
2022/11/13 13:24:51;;;;;;;;;;;;;;;;;;5001169;28;20007;-71
2022/11/13 13:27:17;;;;;;;;;;;;;;;;;;4985413;28;19914;-68
2022/11/13 13:29:43;;;;;;;;;;;;;;;;;;5004176;28;20020;-72
2022/11/13 13:32:09;;;;;;;;;;;;;;;;;;5005629;28;19921;-71
2022/11/13 13:34:35;;;;;;;;;;;;;;;;;;5000548;28;19926;-70
2022/11/13 13:37:01;;;;;;;;;;;;;;;;;;5002783;28;20244;-71
2022/11/13 13:39:26;;;;;;;;;;;;;;;;;;5002385;28;19928;-71
2022/11/13 13:41:52;;;;;;;;;;;;;;;;;;5007937;28;19913;-71
2022/11/13 13:44:18;;;;;;;;;;;;;;;;;;5005537;28;19913;-72
2022/11/13 13:46:44;;;;;;;;;;;;;;;;;;5008409;28;19951;-71
2022/11/13 13:49:10;;;;;;;;;;;;;;;;;;4999625;28;19996;-72
2022/11/13 13:51:36;;;;;;;;;;;;;;;;;;4980145;28;19925;-71
2022/11/13 13:54:02;;;;;;;;;;;;;;;;;;5000297;28;19929;-71
2022/11/13 13:56:28;;;;;;;;;;;;;;;;;;5008008;28;19928;-72
2022/11/13 13:58:54;;;;;;;;;;;;;;;;;;4999008;28;19964;-70
2022/11/13 14:01:20;;;;;;;;;;;;;;;;;;5007390;28;19941;-71
2022/11/13 14:03:45;;;;;;;;;;;;;;;;;;5002272;28;20015;-70
2022/11/13 14:06:11;;;;;;;;;;;;;;;;;;5002472;28;19917;-71
2022/11/13 14:08:37;;;;;;;;;;;;;;;;;;5003043;28;19918;-70
2022/11/13 14:11:03;;;;;;;;;;;;;;;;;;5000849;28;19927;-70
2022/11/13 14:13:29;;;;;;;;;;;;;;;;;;5002531;28;19922;-72
2022/11/13 14:15:55;;;;;;;;;;;;;;;;;;5005986;28;20661;-71
2022/11/13 14:18:21;;;;;;;;;;;;;;;;;;5002860;28;19934;-72
2022/11/13 14:20:47;;;;;;;;;;;;;;;;;;5003729;28;19926;-71
2022/11/13 14:23:12;;;;;;;;;;;;;;;;;;5002945;28;19957;-71
2022/11/13 14:25:38;;;;;;;;;;;;;;;;;;5002024;28;19924;-72
2022/11/13 14:28:04;;;;;;;;;;;;;;;;;;5002832;28;19925;-72
2022/11/13 14:30:30;;;;;;;;;;;;;;;;;;4998079;28;19997;-71
2022/11/13 14:32:56;;;;;;;;;;;;;;;;;;5004828;28;19930;-71
2022/11/13 14:35:22;;;;;;;;;;;;;;;;;;4999654;28;19921;-72
2022/11/13 14:37:48;;;;;;;;;;;;;;;;;;4991393;28;19924;-71
2022/11/13 14:40:14;;;;;;;;;;;;;;;;;;5002078;28;20017;-71
2022/11/13 14:42:39;;;;;;;;;;;;;;;;;;5007449;28;19983;-71
2022/11/13 14:45:05;;;;;;;;;;;;;;;;;;5005406;28;19917;-70
2022/11/13 14:47:36;;;;;;;;;;;;;;;;;;5008260;28;19917;-71
2022/11/13 14:50:02;;;;;;;;;;;;;;;;;;5005240;28;19918;-69
2022/11/13 14:52:27;;;;;;;;;;;;;;;;;;5003325;28;19964;-71
2022/11/13 14:54:53;;;;;;;;;;;;;;;;;;5009444;28;19926;-71
2022/11/13 14:57:19;;;;;;;;;;;;;;;;;;5004729;28;19913;-72
2022/11/13 14:59:45;;;;;;;;;;;;;;;;;;5007099;28;19918;-71
2022/11/13 15:02:11;;;;;;;;;;;;;;;;;;5006113;28;20032;-68
2022/11/13 15:04:37;;;;;;;;;;;;;;;;;;5009846;28;19920;-69
2022/11/13 15:07:03;;;;;;;;;;;;;;;;;;5001138;28;20344;-72
2022/11/13 15:09:29;;;;;;;;;;;;;;;;;;5007024;28;19952;-71
2022/11/13 15:11:55;;;;;;;;;;;;;;;;;;5006056;28;19980;-70
2022/11/13 15:14:21;;;;;;;;;;;;;;;;;;5005107;28;19933;-69
2022/11/13 15:16:47;;;;;;;;;;;;;;;;;;5006273;28;19939;-69
2022/11/13 15:19:14;;;;;;;;;;;;;;;;;;5010858;28;20305;-68
2022/11/13 15:21:40;;;;;;;;;;;;;;;;;;5002615;28;20378;-72
2022/11/13 15:24:05;;;;;;;;;;;;;;;;;;5004332;28;19932;-69
2022/11/13 15:26:31;;;;;;;;;;;;;;;;;;5004518;28;19928;-69
2022/11/13 15:28:58;;;;;;;;;;;;;;;;;;5002902;28;19926;-68
2022/11/13 15:31:24;;;;;;;;;;;;;;;;;;5004172;28;19925;-70
2022/11/13 15:33:50;;;;;;;;;;;;;;;;;;5009315;28;19925;-70
2022/11/13 15:36:16;;;;;;;;;;;;;;;;;;5004394;28;19922;-70
2022/11/13 15:38:41;;;;;;;;;;;;;;;;;;5004721;28;19913;-71
2022/11/13 15:41:07;;;;;;;;;;;;;;;;;;5004838;28;19918;-69
2022/11/13 15:43:33;;;;;;;;;;;;;;;;;;5004340;28;20279;-70
2022/11/13 15:45:59;;;;;;;;;;;;;;;;;;5005198;28;19917;-70
2022/11/13 15:48:25;;;;;;;;;;;;;;;;;;4999930;28;20681;-71
2022/11/13 15:50:51;;;;;;;;;;;;;;;;;;5007064;28;19958;-72
2022/11/13 15:53:17;;;;;;;;;;;;;;;;;;5001415;28;20016;-73
2022/11/13 15:55:43;;;;;;;;;;;;;;;;;;5008684;28;19918;-70
2022/11/13 15:58:09;;;;;;;;;;;;;;;;;;5003095;28;19995;-72
2022/11/13 16:00:37;;;;;;;;;;;;;;;;;;5011973;28;19918;-72
2022/11/13 16:03:09;;;;;;;;;;;;;;;;;;5003093;28;20028;-72
2022/11/13 16:05:35;;;;;;;;;;;;;;;;;;5006598;28;19921;-72
2022/11/13 16:08:01;;;;;;;;;;;;;;;;;;5003967;28;19917;-66
2022/11/13 16:10:27;;;;;;;;;;;;;;;;;;5003637;28;20024;-59
2022/11/13 16:12:53;;;;;;;;;;;;;;;;;;5003584;28;19926;-73
2022/11/13 16:15:20;;;;;;;;;;;;;;;;;;5003173;28;20439;-72
2022/11/13 16:17:46;;;;;;;;;;;;;;;;;;5004884;28;19921;-72
2022/11/13 16:20:14;;;;;;;;;;;;;;;;;;5001129;28;19932;-72
2022/11/13 16:22:39;;;;;;;;;;;;;;;;;;4983946;28;20021;-73
2022/11/13 16:25:06;;;;;;;;;;;;;;;;;;5001413;28;20008;-72
2022/11/13 16:27:34;;;;;;;;;;;;;;;;;;5009767;28;19918;-73
2022/11/13 16:30:00;;;;;;;;;;;;;;;;;;5012083;28;19923;-73
2022/11/13 16:32:26;;;;;;;;;;;;;;;;;;5015150;28;19917;-73
2022/11/13 16:34:52;;;;;;;;;;;;;;;;;;5010911;28;19921;-74
2022/11/13 16:37:18;;;;;;;;;;;;;;;;;;5013360;28;19976;-73
2022/11/13 16:39:44;;;;;;;;;;;;;;;;;;5011547;28;19963;-73